Time;durP1;ratioP1;P1;durP2;ratioP2;P2;SDS_P1;SDS_P2;PMS_P1;PMS_P2;Temp;Humidity;BMP_temperature;BMP_pressure;BME280_temperature;BME280_humidity;BME280_pressure;Samples;Min_cycle;Max_cycle;Signal;HPM_P1;HPM_P2
2021/04/30 00:01:36;;;;;;;46.33;19.30;;;;;;;;;;4932457;28;20044;-60
2021/04/30 00:04:04;;;;;;;39.50;19.67;;;;;;;;;;4931295;28;20030;-63
2021/04/30 00:06:32;;;;;;;38.28;18.50;;;;;;;;;;4930692;28;20078;-58
2021/04/30 00:09:00;;;;;;;45.30;19.30;;;;;;;;;;4928175;28;20043;-60
2021/04/30 00:11:25;;;;;;;40.35;18.85;;;;;;;;;;4927483;28;20147;-60
2021/04/30 00:13:56;;;;;;;36.65;19.02;;;;;;;;;;4924944;28;20542;-59
2021/04/30 00:16:24;;;;;;;38.75;18.92;;;;;;;;;;4946639;28;20035;-60
2021/04/30 00:18:49;;;;;;;37.38;19.25;;;;;;;;;;4937625;28;20085;-59
2021/04/30 00:21:15;;;;;;;34.28;16.95;;;;;;;;;;4944477;28;20039;-59
2021/04/30 00:23:42;;;;;;;41.90;18.20;;;;;;;;;;4929233;28;20043;-59
2021/04/30 00:26:10;;;;;;;45.65;18.23;;;;;;;;;;4943436;28;20059;-60
2021/04/30 00:28:38;;;;;;;42.03;18.52;;;;;;;;;;4930578;28;21371;-59
2021/04/30 00:31:03;;;;;;;40.35;19.00;;;;;;;;;;4931556;28;20098;-59
2021/04/30 00:33:33;;;;;;;46.75;19.17;;;;;;;;;;4928481;28;20566;-59
2021/04/30 00:35:59;;;;;;;44.85;19.45;;;;;;;;;;4927490;28;20058;-59
2021/04/30 00:38:27;;;;;;;38.45;18.95;;;;;;;;;;4931986;28;20490;-59
2021/04/30 00:40:52;;;;;;;41.78;19.17;;;;;;;;;;4943477;28;20042;-60
2021/04/30 00:43:18;;;;;;;39.42;18.55;;;;;;;;;;4939176;28;20039;-59
2021/04/30 00:45:47;;;;;;;37.33;18.33;;;;;;;;;;4928009;28;20138;-58
2021/04/30 00:48:15;;;;;;;40.90;19.73;;;;;;;;;;4929618;28;20475;-59
2021/04/30 00:50:46;;;;;;;41.70;19.20;;;;;;;;;;4911843;28;20616;-59
2021/04/30 00:53:17;;;;;;;36.17;18.35;;;;;;;;;;4929262;28;20040;-60
2021/04/30 00:55:45;;;;;;;42.15;18.67;;;;;;;;;;4930134;28;20039;-59
2021/04/30 00:58:10;;;;;;;41.55;19.23;;;;;;;;;;4928429;28;20081;-58
2021/04/30 01:00:40;;;;;;;35.33;17.17;;;;;;;;;;4913946;28;20122;-58
2021/04/30 01:03:08;;;;;;;36.05;16.95;;;;;;;;;;4927462;28;20039;-59
2021/04/30 01:05:34;;;;;;;48.50;18.40;;;;;;;;;;4929620;28;20034;-59
2021/04/30 01:08:05;;;;;;;41.05;19.40;;;;;;;;;;4928589;28;20035;-59
2021/04/30 01:10:31;;;;;;;38.90;18.30;;;;;;;;;;4929693;28;20946;-59
2021/04/30 01:13:01;;;;;;;35.38;18.17;;;;;;;;;;4928706;28;20058;-59
2021/04/30 01:15:30;;;;;;;45.47;18.80;;;;;;;;;;4929919;28;20134;-59
2021/04/30 01:17:59;;;;;;;32.17;17.85;;;;;;;;;;4926548;28;20027;-60
2021/04/30 01:20:29;;;;;;;36.20;18.85;;;;;;;;;;4928075;28;20484;-59
2021/04/30 01:22:55;;;;;;;41.13;18.88;;;;;;;;;;4942426;28;20487;-59
2021/04/30 01:25:25;;;;;;;36.75;17.10;;;;;;;;;;4935881;28;20043;-59
2021/04/30 01:27:50;;;;;;;35.05;18.08;;;;;;;;;;4943807;28;20039;-59
2021/04/30 01:30:24;;;;;;;40.40;18.42;;;;;;;;;;4928548;28;20046;-59
2021/04/30 01:32:55;;;;;;;31.35;17.30;;;;;;;;;;4928866;28;20138;-60
2021/04/30 01:35:26;;;;;;;37.25;18.38;;;;;;;;;;4914460;28;20719;-58
2021/04/30 01:37:56;;;;;;;44.20;20.23;;;;;;;;;;4928444;28;20039;-59
2021/04/30 01:40:22;;;;;;;37.38;17.52;;;;;;;;;;4930587;28;20045;-59
2021/04/30 01:43:09;;;;;;;34.83;17.55;;;;;;;;;;4929050;28;20040;-59
2021/04/30 01:45:39;;;;;;;29.70;16.73;;;;;;;;;;4930889;28;20047;-60
2021/04/30 01:48:06;;;;;;;39.13;18.95;;;;;;;;;;4927533;28;20044;-59
2021/04/30 01:50:32;;;;;;;43.97;19.70;;;;;;;;;;4929459;28;20042;-61
2021/04/30 01:52:57;;;;;;;37.85;18.67;;;;;;;;;;4929585;28;20063;-58
2021/04/30 01:55:29;;;;;;;41.40;18.52;;;;;;;;;;4913253;28;20119;-60
2021/04/30 01:57:58;;;;;;;33.00;17.77;;;;;;;;;;4938107;28;20082;-60
2021/04/30 02:00:24;;;;;;;35.83;18.95;;;;;;;;;;4920953;28;20039;-60
2021/04/30 02:02:55;;;;;;;33.67;17.40;;;;;;;;;;4911819;28;20032;-60
2021/04/30 02:05:22;;;;;;;36.22;17.27;;;;;;;;;;4927802;28;20027;-59
2021/04/30 02:07:51;;;;;;;32.35;18.42;;;;;;;;;;4930085;28;20162;-60
2021/04/30 02:10:18;;;;;;;35.80;17.45;;;;;;;;;;4945767;28;21351;-59
2021/04/30 02:12:50;;;;;;;31.27;17.15;;;;;;;;;;4930307;28;20038;-58
2021/04/30 02:15:19;;;;;;;37.58;18.23;;;;;;;;;;4932782;28;20031;-60
2021/04/30 02:17:49;;;;;;;31.63;16.65;;;;;;;;;;4926530;28;20035;-59
2021/04/30 02:20:15;;;;;;;30.38;17.52;;;;;;;;;;4933103;28;20031;-60
2021/04/30 02:22:41;;;;;;;33.90;17.23;;;;;;;;;;4930716;28;20122;-59
2021/04/30 02:25:12;;;;;;;34.63;17.80;;;;;;;;;;4931296;28;20031;-59
2021/04/30 02:27:37;;;;;;;40.30;17.17;;;;;;;;;;4931877;28;20120;-61
2021/04/30 02:30:09;;;;;;;32.97;17.38;;;;;;;;;;4931290;28;20623;-58
2021/04/30 02:32:37;;;;;;;34.95;16.63;;;;;;;;;;4932305;28;20833;-59
2021/04/30 02:35:06;;;;;;;32.35;15.77;;;;;;;;;;4946460;28;20035;-60
2021/04/30 02:37:32;;;;;;;31.95;17.00;;;;;;;;;;4949804;28;20039;-60
2021/04/30 02:40:00;;;;;;;31.92;16.15;;;;;;;;;;4933200;28;21212;-59
2021/04/30 02:42:25;;;;;;;29.92;15.02;;;;;;;;;;4945883;28;20043;-58
2021/04/30 02:44:56;;;;;;;24.65;14.00;;;;;;;;;;4931359;28;20036;-59
2021/04/30 02:47:29;;;;;;;30.67;14.45;;;;;;;;;;4926930;28;20051;-59
2021/04/30 02:49:55;;;;;;;30.58;15.23;;;;;;;;;;4929847;28;20043;-59
2021/04/30 02:52:23;;;;;;;37.33;15.27;;;;;;;;;;4930342;28;20043;-61
2021/04/30 02:54:48;;;;;;;30.05;14.95;;;;;;;;;;4892083;28;604252;-59
2021/04/30 02:57:14;;;;;;;32.13;14.30;;;;;;;;;;4938572;28;20074;-59
2021/04/30 02:59:42;;;;;;;33.00;14.45;;;;;;;;;;4916794;28;20101;-59
2021/04/30 03:02:11;;;;;;;32.47;13.57;;;;;;;;;;4931975;28;20031;-59
2021/04/30 03:04:41;;;;;;;33.35;13.90;;;;;;;;;;4946225;28;20028;-59
2021/04/30 03:07:07;;;;;;;27.33;12.90;;;;;;;;;;4932019;28;20039;-59
2021/04/30 03:09:37;;;;;;;39.92;13.85;;;;;;;;;;4932496;28;20467;-58
2021/04/30 03:12:06;;;;;;;35.13;13.93;;;;;;;;;;4928033;28;20070;-58
2021/04/30 03:14:37;;;;;;;29.98;13.52;;;;;;;;;;4930830;28;20028;-59
2021/04/30 03:17:02;;;;;;;25.70;12.48;;;;;;;;;;4931099;28;20039;-59
2021/04/30 03:19:30;;;;;;;25.90;13.80;;;;;;;;;;4925594;28;20051;-58
2021/04/30 03:21:55;;;;;;;29.95;13.38;;;;;;;;;;4929117;28;20815;-59
2021/04/30 03:24:21;;;;;;;30.83;13.95;;;;;;;;;;4932432;28;20032;-59
2021/04/30 03:26:47;;;;;;;27.75;12.32;;;;;;;;;;4928391;28;20541;-60
2021/04/30 03:29:12;;;;;;;28.08;12.90;;;;;;;;;;4931176;28;20060;-60
2021/04/30 03:31:42;;;;;;;31.25;13.00;;;;;;;;;;4914207;28;21397;-58
2021/04/30 03:34:11;;;;;;;28.25;12.77;;;;;;;;;;4927648;28;20077;-59
2021/04/30 03:36:37;;;;;;;29.73;12.10;;;;;;;;;;4932758;28;20161;-59
2021/04/30 03:39:05;;;;;;;28.75;13.07;;;;;;;;;;4931909;28;20043;-59
2021/04/30 03:41:31;;;;;;;28.80;11.13;;;;;;;;;;4933125;28;20043;-60
2021/04/30 03:43:57;;;;;;;26.30;12.07;;;;;;;;;;4928469;28;20494;-60
2021/04/30 03:46:25;;;;;;;22.30;11.23;;;;;;;;;;4932246;28;20035;-60
2021/04/30 03:48:56;;;;;;;37.22;11.07;;;;;;;;;;4916197;28;20495;-60
2021/04/30 03:51:23;;;;;;;29.17;11.15;;;;;;;;;;4931016;28;20787;-59
2021/04/30 03:53:49;;;;;;;28.80;10.50;;;;;;;;;;4927137;28;20219;-59
2021/04/30 03:56:17;;;;;;;29.15;11.20;;;;;;;;;;4931345;28;20700;-59
2021/04/30 03:58:45;;;;;;;27.95;10.70;;;;;;;;;;4931919;28;20042;-59
2021/04/30 04:01:12;;;;;;;23.63;11.48;;;;;;;;;;4916214;28;20038;-59
2021/04/30 04:03:38;;;;;;;32.05;12.15;;;;;;;;;;4930010;28;20035;-59
2021/04/30 04:06:04;;;;;;;32.40;10.10;;;;;;;;;;4914644;28;20780;-58
2021/04/30 04:08:31;;;;;;;20.90;10.15;;;;;;;;;;4931323;28;20038;-59
2021/04/30 04:10:56;;;;;;;32.50;10.57;;;;;;;;;;4931314;28;20090;-59
2021/04/30 04:13:25;;;;;;;25.50;10.13;;;;;;;;;;4944868;28;20059;-60
2021/04/30 04:15:54;;;;;;;25.40;9.13;;;;;;;;;;4932269;28;20031;-60
2021/04/30 04:18:23;;;;;;;22.35;9.48;;;;;;;;;;4928227;28;20087;-60
2021/04/30 04:20:49;;;;;;;19.27;8.02;;;;;;;;;;4928855;28;20114;-59
2021/04/30 04:23:15;;;;;;;16.80;9.40;;;;;;;;;;4929482;28;20032;-59
2021/04/30 04:25:46;;;;;;;18.35;9.15;;;;;;;;;;4931143;28;20157;-59
2021/04/30 04:28:13;;;;;;;25.75;8.73;;;;;;;;;;4928650;28;20035;-59
2021/04/30 04:30:39;;;;;;;29.88;10.30;;;;;;;;;;4929082;28;20455;-59
2021/04/30 04:33:08;;;;;;;25.55;10.05;;;;;;;;;;4926584;28;20035;-59
2021/04/30 04:35:36;;;;;;;21.83;9.27;;;;;;;;;;4930203;28;20047;-59
2021/04/30 04:38:09;;;;;;;15.77;9.27;;;;;;;;;;4929621;28;20129;-59
2021/04/30 04:40:37;;;;;;;21.67;8.57;;;;;;;;;;4931061;28;22176;-59
2021/04/30 04:43:02;;;;;;;23.50;8.75;;;;;;;;;;4913146;28;20043;-59
2021/04/30 04:45:28;;;;;;;23.20;8.15;;;;;;;;;;4931884;28;20534;-59
2021/04/30 04:47:57;;;;;;;23.30;9.15;;;;;;;;;;4921904;28;20036;-58
2021/04/30 04:50:24;;;;;;;23.27;8.65;;;;;;;;;;4931892;28;20037;-59
2021/04/30 04:52:50;;;;;;;25.30;8.57;;;;;;;;;;4927964;28;20043;-59
2021/04/30 04:55:17;;;;;;;24.88;8.57;;;;;;;;;;4929479;28;20062;-59
2021/04/30 04:57:44;;;;;;;18.05;8.70;;;;;;;;;;4929874;28;20027;-59
2021/04/30 05:00:11;;;;;;;27.60;9.25;;;;;;;;;;4928300;28;20043;-59
2021/04/30 05:02:38;;;;;;;17.90;9.45;;;;;;;;;;4911888;28;20105;-58
2021/04/30 05:05:04;;;;;;;18.15;7.90;;;;;;;;;;4925656;28;20046;-58
2021/04/30 05:07:30;;;;;;;26.90;9.43;;;;;;;;;;4928833;28;20099;-60
2021/04/30 05:09:55;;;;;;;19.10;7.72;;;;;;;;;;4930080;28;20836;-60
2021/04/30 05:12:23;;;;;;;31.95;9.05;;;;;;;;;;4930008;28;20035;-60
2021/04/30 05:14:52;;;;;;;18.35;8.20;;;;;;;;;;4927817;28;20039;-59
2021/04/30 05:17:20;;;;;;;21.23;8.50;;;;;;;;;;4943723;28;20039;-59
2021/04/30 05:19:47;;;;;;;18.15;8.82;;;;;;;;;;4914604;28;20388;-60
2021/04/30 05:22:15;;;;;;;29.20;9.52;;;;;;;;;;4927666;28;20680;-59
2021/04/30 05:24:42;;;;;;;16.33;8.52;;;;;;;;;;4942949;28;20656;-58
2021/04/30 05:27:10;;;;;;;19.30;8.32;;;;;;;;;;4928411;28;20039;-59
2021/04/30 05:29:38;;;;;;;18.65;6.97;;;;;;;;;;4936618;28;20027;-59
2021/04/30 05:32:06;;;;;;;21.55;8.02;;;;;;;;;;4904794;28;20523;-59
2021/04/30 05:34:32;;;;;;;32.58;9.73;;;;;;;;;;4928115;28;20145;-59
2021/04/30 05:36:58;;;;;;;36.00;9.57;;;;;;;;;;4926932;28;20086;-60
2021/04/30 05:39:24;;;;;;;29.15;9.00;;;;;;;;;;4929753;28;20038;-60
2021/04/30 05:41:49;;;;;;;29.05;9.63;;;;;;;;;;4928963;28;20743;-59
2021/04/30 05:44:17;;;;;;;19.30;7.63;;;;;;;;;;4926907;28;20035;-60
2021/04/30 05:46:42;;;;;;;27.15;9.00;;;;;;;;;;4926750;28;20534;-59
2021/04/30 05:49:08;;;;;;;23.42;9.13;;;;;;;;;;4928494;28;21080;-59
2021/04/30 05:51:36;;;;;;;22.90;9.65;;;;;;;;;;4927977;28;21307;-59
2021/04/30 05:54:05;;;;;;;23.75;8.30;;;;;;;;;;4928012;28;20054;-59
2021/04/30 05:56:30;;;;;;;26.63;8.82;;;;;;;;;;4927323;28;20055;-58
2021/04/30 05:58:59;;;;;;;23.73;9.23;;;;;;;;;;4928213;28;20189;-59
2021/04/30 06:01:29;;;;;;;20.58;7.93;;;;;;;;;;4908691;28;20035;-59
2021/04/30 06:03:55;;;;;;;21.17;8.00;;;;;;;;;;4929950;28;20039;-60
2021/04/30 06:06:20;;;;;;;24.80;8.10;;;;;;;;;;4928314;28;20039;-58
2021/04/30 06:08:46;;;;;;;25.05;8.32;;;;;;;;;;4924241;28;20059;-59
2021/04/30 06:11:12;;;;;;;18.98;7.93;;;;;;;;;;4908197;28;20170;-59
2021/04/30 06:13:42;;;;;;;23.98;8.43;;;;;;;;;;4942743;28;20030;-58
2021/04/30 06:16:07;;;;;;;24.17;8.52;;;;;;;;;;4944357;28;20054;-61
2021/04/30 06:18:35;;;;;;;20.95;8.32;;;;;;;;;;4911363;28;20041;-59
2021/04/30 06:21:00;;;;;;;18.63;8.38;;;;;;;;;;4911862;28;20043;-60
2021/04/30 06:23:26;;;;;;;22.42;8.32;;;;;;;;;;4922398;28;20043;-59
2021/04/30 06:25:52;;;;;;;22.17;7.70;;;;;;;;;;4946243;28;20097;-60
2021/04/30 06:28:20;;;;;;;23.48;9.13;;;;;;;;;;4943534;28;20032;-59
2021/04/30 06:30:46;;;;;;;34.05;8.88;;;;;;;;;;4946430;28;20960;-59
2021/04/30 06:33:12;;;;;;;21.67;7.88;;;;;;;;;;4927115;28;20027;-60
2021/04/30 06:35:38;;;;;;;26.45;7.95;;;;;;;;;;4942043;28;22117;-60
2021/04/30 06:38:04;;;;;;;25.02;8.27;;;;;;;;;;4926712;28;20093;-59
2021/04/30 06:40:33;;;;;;;13.55;6.97;;;;;;;;;;4941382;28;20042;-60
2021/04/30 06:42:58;;;;;;;21.50;7.10;;;;;;;;;;4927883;28;20031;-59
2021/04/30 06:45:24;;;;;;;17.83;6.75;;;;;;;;;;4935835;28;20035;-60
2021/04/30 06:47:52;;;;;;;17.85;8.15;;;;;;;;;;4926602;28;20993;-60
2021/04/30 06:50:18;;;;;;;21.20;8.45;;;;;;;;;;4931064;28;20054;-59
2021/04/30 06:52:43;;;;;;;26.52;7.38;;;;;;;;;;4926527;28;20031;-59
2021/04/30 06:55:09;;;;;;;23.02;8.15;;;;;;;;;;4923445;28;20430;-61
2021/04/30 06:57:38;;;;;;;20.98;7.65;;;;;;;;;;4943917;28;20027;-59
2021/04/30 07:00:04;;;;;;;30.23;8.05;;;;;;;;;;4930009;28;20062;-59
2021/04/30 07:02:30;;;;;;;22.80;8.05;;;;;;;;;;4931527;28;20032;-59
2021/04/30 07:04:57;;;;;;;23.67;8.20;;;;;;;;;;4931935;28;20089;-59
2021/04/30 07:07:28;;;;;;;25.80;8.27;;;;;;;;;;4928492;28;20077;-59
2021/04/30 07:09:56;;;;;;;20.45;7.22;;;;;;;;;;4921648;28;20173;-59
2021/04/30 07:12:21;;;;;;;20.70;7.32;;;;;;;;;;4924868;28;20110;-60
2021/04/30 07:14:47;;;;;;;25.95;7.60;;;;;;;;;;4915044;28;20038;-59
2021/04/30 07:17:13;;;;;;;21.27;6.97;;;;;;;;;;4909553;28;20442;-59
2021/04/30 07:19:38;;;;;;;25.92;8.38;;;;;;;;;;4930101;28;20039;-59
2021/04/30 07:22:10;;;;;;;18.98;6.68;;;;;;;;;;4930557;28;20122;-58
2021/04/30 07:24:35;;;;;;;18.15;6.78;;;;;;;;;;4914599;28;20031;-59
2021/04/30 07:27:01;;;;;;;18.80;7.75;;;;;;;;;;4930662;28;20277;-59
2021/04/30 07:29:26;;;;;;;23.13;6.32;;;;;;;;;;4929366;28;20023;-59
2021/04/30 07:31:56;;;;;;;20.00;6.05;;;;;;;;;;4930378;28;20035;-60
2021/04/30 07:34:22;;;;;;;16.15;5.97;;;;;;;;;;4929361;28;20134;-59
2021/04/30 07:36:48;;;;;;;17.33;6.55;;;;;;;;;;4928683;28;20118;-59
2021/04/30 07:39:13;;;;;;;18.13;6.13;;;;;;;;;;4925221;28;20028;-59
2021/04/30 07:41:39;;;;;;;28.17;6.10;;;;;;;;;;4930681;28;20481;-58
2021/04/30 07:44:04;;;;;;;18.55;5.55;;;;;;;;;;4928981;28;20093;-59
2021/04/30 07:46:30;;;;;;;16.75;5.68;;;;;;;;;;4943320;28;20035;-59
2021/04/30 07:48:58;;;;;;;18.65;5.72;;;;;;;;;;4927735;28;20066;-59
2021/04/30 07:51:23;;;;;;;12.13;5.03;;;;;;;;;;4913009;28;20034;-59
2021/04/30 07:53:49;;;;;;;19.25;5.13;;;;;;;;;;4929193;28;20039;-59
2021/04/30 07:56:15;;;;;;;20.23;6.93;;;;;;;;;;4898732;28;22211;-60
2021/04/30 07:58:41;;;;;;;18.98;5.28;;;;;;;;;;4929979;28;20834;-59
2021/04/30 08:01:06;;;;;;;13.18;5.72;;;;;;;;;;4929570;28;20031;-60
2021/04/30 08:03:37;;;;;;;14.43;5.78;;;;;;;;;;4929712;28;20035;-59
2021/04/30 08:06:02;;;;;;;19.80;6.05;;;;;;;;;;4947007;28;20027;-60
2021/04/30 08:08:28;;;;;;;16.17;6.10;;;;;;;;;;4892636;28;20399;-59
2021/04/30 08:10:53;;;;;;;14.20;5.65;;;;;;;;;;4928066;28;20107;-60
2021/04/30 08:13:19;;;;;;;17.27;5.95;;;;;;;;;;4925158;28;20998;-59
2021/04/30 08:15:46;;;;;;;15.85;5.15;;;;;;;;;;4924366;28;20042;-60
2021/04/30 08:18:11;;;;;;;19.38;5.00;;;;;;;;;;4936889;28;20043;-60
2021/04/30 08:20:37;;;;;;;14.23;5.78;;;;;;;;;;4929313;28;20497;-59
2021/04/30 08:23:04;;;;;;;17.48;6.07;;;;;;;;;;4943419;28;20089;-59
2021/04/30 08:25:30;;;;;;;17.15;6.07;;;;;;;;;;4926874;28;20043;-59
2021/04/30 08:27:57;;;;;;;19.02;5.60;;;;;;;;;;4927647;28;20328;-60
2021/04/30 08:30:24;;;;;;;19.55;6.03;;;;;;;;;;4929561;28;20471;-60
2021/04/30 08:32:51;;;;;;;19.05;5.70;;;;;;;;;;4925332;28;20039;-60
2021/04/30 08:35:19;;;;;;;22.50;6.22;;;;;;;;;;4929739;28;20035;-61
2021/04/30 08:37:44;;;;;;;13.85;6.35;;;;;;;;;;4924616;28;20027;-61
2021/04/30 08:40:13;;;;;;;22.88;7.10;;;;;;;;;;4930120;28;20153;-61
2021/04/30 08:42:39;;;;;;;22.92;6.32;;;;;;;;;;4929142;28;20690;-62
2021/04/30 08:45:07;;;;;;;25.00;7.32;;;;;;;;;;4920806;28;20487;-62
2021/04/30 08:47:35;;;;;;;19.20;6.30;;;;;;;;;;4905832;28;20038;-64
2021/04/30 08:50:03;;;;;;;15.30;6.35;;;;;;;;;;4923587;28;20781;-63
2021/04/30 08:52:29;;;;;;;10.82;5.47;;;;;;;;;;4925446;28;20038;-62
2021/04/30 08:54:56;;;;;;;15.23;6.40;;;;;;;;;;4925065;28;20035;-62
2021/04/30 08:57:26;;;;;;;11.73;6.13;;;;;;;;;;4926069;28;20263;-62
2021/04/30 08:59:58;;;;;;;10.90;6.07;;;;;;;;;;4927255;28;20027;-61
2021/04/30 09:02:28;;;;;;;17.38;5.82;;;;;;;;;;4908377;28;20146;-62
2021/04/30 09:04:55;;;;;;;15.98;6.22;;;;;;;;;;4944477;28;20039;-63
2021/04/30 09:07:24;;;;;;;21.05;7.30;;;;;;;;;;4925105;28;20089;-62
2021/04/30 09:09:56;;;;;;;18.58;6.85;;;;;;;;;;4941003;28;20032;-62
2021/04/30 09:12:22;;;;;;;13.52;6.82;;;;;;;;;;4911443;28;20630;-62
2021/04/30 09:14:48;;;;;;;11.65;5.88;;;;;;;;;;4926165;28;20027;-63
2021/04/30 09:17:15;;;;;;;17.55;6.85;;;;;;;;;;4925687;28;20035;-61
2021/04/30 09:19:45;;;;;;;11.27;6.30;;;;;;;;;;4923752;28;20498;-62
2021/04/30 09:22:10;;;;;;;12.73;5.90;;;;;;;;;;4925184;28;20042;-63
2021/04/30 09:24:39;;;;;;;17.00;7.35;;;;;;;;;;4925603;28;20043;-62
2021/04/30 09:27:06;;;;;;;13.52;7.03;;;;;;;;;;4942184;28;20034;-61
2021/04/30 09:29:32;;;;;;;14.05;6.15;;;;;;;;;;4929020;28;20036;-62
2021/04/30 09:31:59;;;;;;;12.77;6.40;;;;;;;;;;4908459;28;20083;-63
2021/04/30 09:34:28;;;;;;;13.70;6.22;;;;;;;;;;4929415;28;20119;-62
2021/04/30 09:37:15;;;;;;;13.23;6.43;;;;;;;;;;4918643;28;20093;-64
2021/04/30 09:39:47;;;;;;;11.63;6.00;;;;;;;;;;4913571;28;20556;-64
2021/04/30 09:42:16;;;;;;;15.80;7.00;;;;;;;;;;4913207;28;20038;-63
2021/04/30 09:44:44;;;;;;;13.48;6.03;;;;;;;;;;4908619;28;20038;-64
2021/04/30 09:47:17;;;;;;;19.45;6.30;;;;;;;;;;4923820;28;20449;-64
2021/04/30 09:49:43;;;;;;;12.52;6.55;;;;;;;;;;4926617;28;20951;-63
2021/04/30 09:52:08;;;;;;;12.13;5.32;;;;;;;;;;4934706;28;20479;-64
2021/04/30 09:54:35;;;;;;;10.07;5.95;;;;;;;;;;4924569;28;20062;-63
2021/04/30 09:57:18;;;;;;;11.60;5.10;;;;;;;;;;4925236;28;20059;-63
2021/04/30 10:00:02;;;;;;;12.93;5.72;;;;;;;;;;4927168;28;20070;-63
2021/04/30 10:02:29;;;;;;;10.02;5.38;;;;;;;;;;4925811;28;20042;-63
2021/04/30 10:04:57;;;;;;;10.65;6.00;;;;;;;;;;4926678;28;20086;-62
2021/04/30 10:07:26;;;;;;;10.35;5.70;;;;;;;;;;4926720;28;20034;-63
2021/04/30 10:10:09;;;;;;;10.73;5.50;;;;;;;;;;4925752;28;20031;-63
2021/04/30 10:12:43;;;;;;;8.30;5.50;;;;;;;;;;4925686;28;20043;-64
2021/04/30 10:15:09;;;;;;;10.00;5.68;;;;;;;;;;4939688;28;20087;-63
2021/04/30 10:17:38;;;;;;;8.93;5.28;;;;;;;;;;4942860;28;20042;-64
2021/04/30 10:20:04;;;;;;;14.57;5.45;;;;;;;;;;4927909;28;20043;-62
2021/04/30 10:22:30;;;;;;;12.40;5.30;;;;;;;;;;4926223;28;20031;-63
2021/04/30 10:24:59;;;;;;;10.73;5.53;;;;;;;;;;4939898;28;20042;-62
2021/04/30 10:27:29;;;;;;;7.60;5.00;;;;;;;;;;4925576;28;20706;-63
2021/04/30 10:30:15;;;;;;;11.77;5.20;;;;;;;;;;4926389;28;20027;-63
2021/04/30 10:32:56;;;;;;;7.32;4.57;;;;;;;;;;4931500;28;20678;-63
2021/04/30 10:35:25;;;;;;;12.75;5.38;;;;;;;;;;4915256;28;20093;-63
2021/04/30 10:37:54;;;;;;;13.25;6.18;;;;;;;;;;4930510;28;20023;-63
2021/04/30 10:40:19;;;;;;;14.80;5.53;;;;;;;;;;4931934;28;20495;-63
2021/04/30 10:42:46;;;;;;;14.57;5.82;;;;;;;;;;4931849;28;20115;-64
2021/04/30 10:45:13;;;;;;;7.90;4.80;;;;;;;;;;4930590;28;20041;-63
2021/04/30 10:47:42;;;;;;;10.10;5.20;;;;;;;;;;4945107;28;21631;-64
2021/04/30 10:50:08;;;;;;;8.95;5.32;;;;;;;;;;4930653;28;20038;-64
2021/04/30 10:52:34;;;;;;;8.73;4.90;;;;;;;;;;4930664;28;20086;-63
2021/04/30 10:55:04;;;;;;;7.53;4.78;;;;;;;;;;4911907;28;20059;-64
2021/04/30 10:57:45;;;;;;;8.18;5.22;;;;;;;;;;4923871;28;20035;-64
2021/04/30 11:00:11;;;;;;;13.95;4.95;;;;;;;;;;4946629;28;20615;-64
2021/04/30 11:02:39;;;;;;;11.20;5.43;;;;;;;;;;4931567;28;20027;-64
2021/04/30 11:05:05;;;;;;;12.45;5.75;;;;;;;;;;4931904;28;20050;-65
2021/04/30 11:07:34;;;;;;;11.32;5.20;;;;;;;;;;4931744;28;20068;-64
2021/04/30 11:10:20;;;;;;;11.57;5.40;;;;;;;;;;4931330;28;20038;-64
2021/04/30 11:12:56;;;;;;;10.77;5.43;;;;;;;;;;4929473;28;20645;-64
2021/04/30 11:15:23;;;;;;;7.47;5.25;;;;;;;;;;4916550;28;20030;-64
2021/04/30 11:17:55;;;;;;;6.80;4.55;;;;;;;;;;4927144;28;20090;-65
2021/04/30 11:20:33;;;;;;;5.50;4.20;;;;;;;;;;4929821;28;20096;-65
2021/04/30 11:23:18;;;;;;;6.22;4.03;;;;;;;;;;4929431;28;20137;-64
2021/04/30 11:26:11;;;;;;;6.20;4.50;;;;;;;;;;4911453;28;20045;-62
2021/04/30 11:28:37;;;;;;;10.17;4.17;;;;;;;;;;4929120;28;20039;-63
2021/04/30 11:31:04;;;;;;;7.82;4.85;;;;;;;;;;4929896;28;21330;-63
2021/04/30 11:33:31;;;;;;;8.50;4.72;;;;;;;;;;4938538;28;20073;-63
2021/04/30 11:36:00;;;;;;;7.03;4.50;;;;;;;;;;4927792;28;20153;-63
2021/04/30 11:38:38;;;;;;;7.82;4.95;;;;;;;;;;4930811;28;20039;-63
2021/04/30 11:41:05;;;;;;;5.53;4.40;;;;;;;;;;4930909;28;20024;-63
2021/04/30 11:43:31;;;;;;;6.18;5.40;;;;;;;;;;4946648;28;20024;-64
2021/04/30 11:45:58;;;;;;;7.97;5.07;;;;;;;;;;4932433;28;20165;-63
2021/04/30 11:48:27;;;;;;;5.95;4.35;;;;;;;;;;4914867;28;22212;-64
2021/04/30 11:50:58;;;;;;;8.43;5.10;;;;;;;;;;4911481;28;20035;-64
2021/04/30 11:53:24;;;;;;;8.27;5.40;;;;;;;;;;4914887;28;20058;-65
2021/04/30 11:55:51;;;;;;;6.47;4.05;;;;;;;;;;4930430;28;20051;-63
2021/04/30 11:58:16;;;;;;;8.23;5.28;;;;;;;;;;4918775;28;20090;-64
2021/04/30 12:00:43;;;;;;;5.97;4.55;;;;;;;;;;4929575;28;20035;-63
2021/04/30 12:03:12;;;;;;;6.50;4.65;;;;;;;;;;4923881;28;20042;-64
2021/04/30 12:05:40;;;;;;;5.63;4.13;;;;;;;;;;4930175;28;20031;-64
2021/04/30 12:08:08;;;;;;;7.88;3.75;;;;;;;;;;4929842;28;20070;-64
2021/04/30 12:10:35;;;;;;;4.00;3.38;;;;;;;;;;4929751;28;20039;-63
2021/04/30 12:13:01;;;;;;;5.25;4.00;;;;;;;;;;4926266;28;20134;-64
2021/04/30 12:15:29;;;;;;;6.07;3.65;;;;;;;;;;4914756;28;20031;-65
2021/04/30 12:17:55;;;;;;;5.55;3.80;;;;;;;;;;4923031;28;20035;-63
2021/04/30 12:20:23;;;;;;;4.90;3.90;;;;;;;;;;4929943;28;20027;-65
2021/04/30 12:22:57;;;;;;;8.02;4.60;;;;;;;;;;4930697;28;20102;-65
2021/04/30 12:25:27;;;;;;;5.95;4.93;;;;;;;;;;4941678;28;20035;-64
2021/04/30 12:27:54;;;;;;;6.55;4.53;;;;;;;;;;4927419;28;20063;-65
2021/04/30 12:30:27;;;;;;;8.40;5.47;;;;;;;;;;4926626;28;20031;-65
2021/04/30 12:32:55;;;;;;;6.40;4.32;;;;;;;;;;4928526;28;20034;-66
2021/04/30 12:35:29;;;;;;;10.15;5.97;;;;;;;;;;4948409;28;20479;-64
2021/04/30 12:37:54;;;;;;;7.60;5.68;;;;;;;;;;4927279;28;20035;-63
2021/04/30 12:40:25;;;;;;;10.93;6.47;;;;;;;;;;4928241;28;20360;-65
2021/04/30 12:42:51;;;;;;;8.15;6.43;;;;;;;;;;4927108;28;20473;-65
2021/04/30 12:45:18;;;;;;;13.23;6.45;;;;;;;;;;4928974;28;20514;-63
2021/04/30 12:47:45;;;;;;;9.23;6.43;;;;;;;;;;4938058;28;20050;-63
2021/04/30 12:50:15;;;;;;;10.50;7.15;;;;;;;;;;4928826;28;20031;-64
2021/04/30 12:52:41;;;;;;;8.98;6.38;;;;;;;;;;4945059;28;20038;-65
2021/04/30 12:55:22;;;;;;;13.07;7.95;;;;;;;;;;4950254;28;20125;-64
2021/04/30 12:58:04;;;;;;;9.30;6.68;;;;;;;;;;4928608;28;20027;-64
2021/04/30 13:00:50;;;;;;;10.45;7.78;;;;;;;;;;4913594;28;20083;-64
2021/04/30 13:03:16;;;;;;;10.75;7.20;;;;;;;;;;4908190;28;20031;-65
2021/04/30 13:05:43;;;;;;;9.52;7.40;;;;;;;;;;4895523;28;20058;-63
2021/04/30 13:08:09;;;;;;;8.65;6.60;;;;;;;;;;4894658;28;20411;-63
2021/04/30 13:10:38;;;;;;;12.63;6.88;;;;;;;;;;4910266;28;20039;-63
2021/04/30 13:13:05;;;;;;;9.52;5.38;;;;;;;;;;4927010;28;20030;-64
2021/04/30 13:15:33;;;;;;;10.50;5.30;;;;;;;;;;4926353;28;20129;-63
2021/04/30 13:18:01;;;;;;;6.00;4.63;;;;;;;;;;4929382;28;20027;-64
2021/04/30 13:20:34;;;;;;;6.00;4.53;;;;;;;;;;4929087;28;20395;-63
2021/04/30 13:23:03;;;;;;;6.78;4.65;;;;;;;;;;4928430;28;20146;-64
2021/04/30 13:25:35;;;;;;;10.35;4.90;;;;;;;;;;4924056;28;20047;-62
2021/04/30 13:28:09;;;;;;;7.78;4.50;;;;;;;;;;4923475;28;20621;-63
2021/04/30 13:30:42;;;;;;;6.18;4.88;;;;;;;;;;4928166;28;20039;-63
2021/04/30 13:33:12;;;;;;;6.18;4.28;;;;;;;;;;4922381;28;20050;-64
2021/04/30 13:35:38;;;;;;;9.43;4.72;;;;;;;;;;4945764;28;20046;-62
2021/04/30 13:38:07;;;;;;;11.90;4.85;;;;;;;;;;4927310;28;20073;-63
2021/04/30 13:40:34;;;;;;;7.78;4.97;;;;;;;;;;4925769;28;20043;-62
2021/04/30 13:43:06;;;;;;;9.85;5.10;;;;;;;;;;4945734;28;20109;-63
2021/04/30 13:45:32;;;;;;;7.15;4.90;;;;;;;;;;4912896;28;20089;-64
2021/04/30 13:47:58;;;;;;;8.93;4.68;;;;;;;;;;4937819;28;20031;-62
2021/04/30 13:50:25;;;;;;;6.88;5.47;;;;;;;;;;4929360;28;20078;-64
2021/04/30 13:52:51;;;;;;;13.73;6.07;;;;;;;;;;4926788;28;20031;-63
2021/04/30 13:55:17;;;;;;;6.03;5.25;;;;;;;;;;4922016;28;20047;-64
2021/04/30 13:57:46;;;;;;;9.93;6.40;;;;;;;;;;4911570;28;20050;-63
2021/04/30 14:00:15;;;;;;;8.43;5.65;;;;;;;;;;4929427;28;20035;-64
2021/04/30 14:02:44;;;;;;;6.90;6.05;;;;;;;;;;4928773;28;20047;-63
2021/04/30 14:05:11;;;;;;;8.50;6.35;;;;;;;;;;4928224;28;20055;-64
2021/04/30 14:07:37;;;;;;;11.82;6.43;;;;;;;;;;4931951;28;20035;-64
2021/04/30 14:10:08;;;;;;;10.40;6.63;;;;;;;;;;4931373;28;20066;-64
2021/04/30 14:12:34;;;;;;;9.90;7.45;;;;;;;;;;4946772;28;20028;-64
2021/04/30 14:15:02;;;;;;;10.98;7.90;;;;;;;;;;4929966;28;20097;-64
2021/04/30 14:17:28;;;;;;;13.63;7.97;;;;;;;;;;4930576;28;20035;-63
2021/04/30 14:19:54;;;;;;;11.02;9.10;;;;;;;;;;4932510;28;20394;-64
2021/04/30 14:22:20;;;;;;;13.20;7.88;;;;;;;;;;4929855;28;20070;-63
2021/04/30 14:24:46;;;;;;;12.88;9.60;;;;;;;;;;4915743;28;20528;-64
2021/04/30 14:27:14;;;;;;;15.85;9.13;;;;;;;;;;4929228;28;20541;-64
2021/04/30 14:29:40;;;;;;;21.40;9.68;;;;;;;;;;4930961;28;20046;-63
2021/04/30 14:32:09;;;;;;;15.02;9.90;;;;;;;;;;4945802;28;20035;-64
2021/04/30 14:34:35;;;;;;;16.85;11.27;;;;;;;;;;4928881;28;20031;-63